Time;durP1;ratioP1;P1;durP2;ratioP2;P2;SDS_P1;SDS_P2;PMS_P1;PMS_P2;Temp;Humidity;BMP_temperature;BMP_pressure;BME280_temperature;BME280_humidity;BME280_pressure;Samples;Min_cycle;Max_cycle;Signal;HPM_P1;HPM_P2
2022/10/16 00:01:09;;;;;;;1.10;0.63;;;;;;;13.45;86.45;100514.34;5997808;28;20127;-67
2022/10/16 00:04:04;;;;;;;3.38;0.70;;;;;;;13.32;86.50;100503.34;5998079;28;20545;-67
2022/10/16 00:06:59;;;;;;;2.53;1.10;;;;;;;13.31;87.72;100507.03;5999300;28;20031;-67
2022/10/16 00:09:55;;;;;;;5.97;0.90;;;;;;;13.27;87.69;100503.88;5999372;28;20039;-67
2022/10/16 00:12:50;;;;;;;3.37;0.90;;;;;;;13.29;88.35;100509.03;5997554;28;20031;-67
2022/10/16 00:15:46;;;;;;;2.73;1.00;;;;;;;13.23;89.30;100499.03;5998961;28;20371;-67
2022/10/16 00:18:41;;;;;;;2.08;0.90;;;;;;;13.26;89.82;100509.38;5998774;28;20108;-67
2022/10/16 00:21:37;;;;;;;2.53;1.05;;;;;;;13.24;89.86;100512.19;5998506;28;20027;-67
2022/10/16 00:24:32;;;;;;;1.97;1.10;;;;;;;13.24;90.90;100506.03;5998536;28;20066;-67
2022/10/16 00:27:27;;;;;;;2.35;1.17;;;;;;;13.28;91.21;100512.69;5997327;28;20393;-67
2022/10/16 00:30:23;;;;;;;2.00;1.00;;;;;;;13.27;91.56;100509.19;5998356;28;20098;-67
2022/10/16 00:33:18;;;;;;;2.85;1.00;;;;;;;13.24;92.67;100511.34;5998942;28;20105;-67
2022/10/16 00:36:16;;;;;;;2.95;1.13;;;;;;;13.28;93.60;100515.34;5998906;28;20030;-67
2022/10/16 00:39:11;;;;;;;1.60;1.20;;;;;;;13.29;94.64;100530.34;5998575;28;20031;-67
2022/10/16 00:42:13;;;;;;;4.57;1.23;;;;;;;13.21;94.68;100517.03;5997322;28;20505;-67
2022/10/16 00:45:09;;;;;;;2.35;1.20;;;;;;;13.26;95.05;100531.50;6013154;28;20509;-67
2022/10/16 00:48:06;;;;;;;2.33;0.98;;;;;;;13.18;95.54;100533.34;5998420;28;20473;-67
2022/10/16 00:51:03;;;;;;;2.50;1.17;;;;;;;13.17;96.29;100539.66;5996994;28;20035;-67
2022/10/16 00:53:59;;;;;;;3.03;1.13;;;;;;;13.21;96.42;100549.00;5996998;28;20038;-67
2022/10/16 00:56:57;;;;;;;2.70;1.10;;;;;;;13.17;96.73;100537.81;5988186;28;20034;-66
2022/10/16 00:59:53;;;;;;;1.30;0.98;;;;;;;13.13;97.63;100530.34;5999924;28;20054;-67
2022/10/16 01:02:56;;;;;;;3.03;1.00;;;;;;;13.10;97.27;100544.81;6002230;28;20026;-67
2022/10/16 01:06:35;;;;;;;3.65;1.10;;;;;;;13.07;97.47;100563.78;6002887;28;20038;-67
2022/10/16 01:09:37;;;;;;;2.90;1.00;;;;;;;13.02;97.94;100550.94;6002124;28;20058;-67
2022/10/16 01:12:38;;;;;;;2.67;0.88;;;;;;;13.03;97.76;100555.28;6016557;28;20039;-67
2022/10/16 01:15:37;;;;;;;2.47;1.20;;;;;;;12.99;98.16;100545.13;6017474;28;20031;-67
2022/10/16 01:18:35;;;;;;;2.55;1.13;;;;;;;13.00;98.90;100530.81;5999752;28;20471;-67
2022/10/16 01:21:33;;;;;;;1.85;1.10;;;;;;;12.97;99.04;100537.28;6002041;28;20407;-67
2022/10/16 01:24:38;;;;;;;2.30;1.10;;;;;;;13.03;98.72;100552.59;6001932;28;20066;-67
2022/10/16 01:27:35;;;;;;;4.35;1.48;;;;;;;13.03;99.54;100547.28;6002275;28;20034;-67
2022/10/16 01:30:32;;;;;;;7.55;1.75;;;;;;;13.01;100.00;100535.97;6001934;28;20423;-67
2022/10/16 01:33:38;;;;;;;5.22;1.52;;;;;;;13.01;99.79;100535.13;6002176;28;20035;-67
2022/10/16 01:36:38;;;;;;;6.32;2.05;;;;;;;12.94;100.00;100532.28;6000026;28;20497;-67
2022/10/16 01:39:36;;;;;;;2.92;1.60;;;;;;;13.00;100.00;100544.94;6000711;28;20408;-67
2022/10/16 01:42:41;;;;;;;2.75;1.30;;;;;;;12.97;100.00;100545.28;6001127;28;20113;-67
2022/10/16 01:45:38;;;;;;;4.03;1.50;;;;;;;12.98;100.00;100560.25;6001214;28;20046;-67
2022/10/16 01:48:34;;;;;;;2.72;1.40;;;;;;;12.95;100.00;100571.22;6000685;28;20320;-67
2022/10/16 01:51:29;;;;;;;3.30;1.48;;;;;;;12.80;100.00;100561.41;6000675;28;20034;-67
2022/10/16 01:54:27;;;;;;;2.55;1.30;;;;;;;12.83;100.00;100572.53;6001563;28;20074;-67
2022/10/16 01:57:24;;;;;;;2.80;1.55;;;;;;;12.71;100.00;100573.84;6001697;28;20027;-67
2022/10/16 02:00:20;;;;;;;6.88;1.63;;;;;;;12.67;100.00;100583.16;5999441;28;20584;-67
2022/10/16 02:03:17;;;;;;;3.10;1.33;;;;;;;12.67;100.00;100588.47;6000042;28;20463;-67
2022/10/16 02:06:12;;;;;;;2.63;1.33;;;;;;;12.67;100.00;100585.81;6001094;28;20487;-67
2022/10/16 02:09:08;;;;;;;2.25;1.23;;;;;;;12.64;100.00;100588.78;6002029;28;20037;-67
2022/10/16 02:12:11;;;;;;;2.90;1.50;;;;;;;12.55;100.00;100573.81;5999992;28;20162;-67
2022/10/16 02:15:06;;;;;;;2.28;1.23;;;;;;;12.60;100.00;100578.66;5997043;28;20086;-67
2022/10/16 02:18:04;;;;;;;1.88;1.15;;;;;;;12.66;100.00;100586.81;6001036;28;20030;-67
2022/10/16 02:21:02;;;;;;;3.28;1.30;;;;;;;12.71;100.00;100595.16;6014662;28;20035;-67
2022/10/16 02:24:17;;;;;;;2.90;1.50;;;;;;;12.72;100.00;100593.31;6000685;28;20031;-66
2022/10/16 02:27:40;;;;;;;3.10;1.92;;;;;;;12.75;100.00;100592.97;5980053;28;20138;-66
2022/10/16 02:30:42;;;;;;;3.72;1.55;;;;;;;12.66;100.00;100581.50;6000265;28;20062;-66
2022/10/16 02:33:39;;;;;;;5.07;1.70;;;;;;;12.67;100.00;100599.09;6011532;28;20459;-66
2022/10/16 02:36:35;;;;;;;3.83;1.70;;;;;;;12.62;100.00;100601.44;5999013;28;20427;-66
2022/10/16 02:39:31;;;;;;;4.30;1.85;;;;;;;12.52;100.00;100600.75;5999520;28;20351;-66
2022/10/16 02:42:33;;;;;;;6.07;1.50;;;;;;;12.45;100.00;100597.88;5999619;28;20046;-66
2022/10/16 02:45:29;;;;;;;2.92;1.63;;;;;;;12.50;100.00;100598.22;6000645;28;20125;-66
2022/10/16 02:48:24;;;;;;;3.75;1.50;;;;;;;12.53;100.00;100602.38;6000069;28;20038;-66
2022/10/16 02:51:19;;;;;;;3.23;1.40;;;;;;;12.44;100.00;100606.88;5999778;28;20039;-66
2022/10/16 02:54:14;;;;;;;4.23;1.73;;;;;;;12.44;100.00;100598.88;6000301;28;20786;-66
2022/10/16 02:57:10;;;;;;;5.90;1.73;;;;;;;12.43;100.00;100594.56;6000300;28;20033;-66
2022/10/16 03:00:07;;;;;;;3.50;1.50;;;;;;;12.47;100.00;100587.09;6000099;28;20029;-66
2022/10/16 03:03:03;;;;;;;3.05;1.50;;;;;;;12.49;100.00;100595.75;5998813;28;20059;-66
2022/10/16 03:05:58;;;;;;;2.57;1.43;;;;;;;12.60;100.00;100597.25;6000061;28;20061;-66
2022/10/16 03:08:53;;;;;;;6.13;1.50;;;;;;;12.51;100.00;100593.75;6000280;28;20033;-66
2022/10/16 03:11:49;;;;;;;4.77;1.43;;;;;;;12.54;100.00;100598.75;5999408;28;20271;-67
2022/10/16 03:14:45;;;;;;;3.53;1.60;;;;;;;12.50;100.00;100600.88;5998400;28;20038;-66
2022/10/16 03:17:41;;;;;;;4.70;1.83;;;;;;;12.38;100.00;100606.66;5996107;28;20437;-66
2022/10/16 03:20:36;;;;;;;3.37;1.50;;;;;;;12.35;100.00;100599.00;5999216;28;20055;-66
2022/10/16 03:23:32;;;;;;;3.50;1.93;;;;;;;12.22;100.00;100585.31;5999594;28;20961;-66
2022/10/16 03:26:27;;;;;;;3.97;1.90;;;;;;;12.27;100.00;100598.97;5999701;28;20118;-66
2022/10/16 03:29:22;;;;;;;2.87;1.40;;;;;;;12.22;100.00;100609.25;5999236;28;20097;-66
2022/10/16 03:32:18;;;;;;;4.03;1.70;;;;;;;12.14;100.00;100612.72;5999010;28;20111;-67
2022/10/16 03:35:13;;;;;;;20.67;2.53;;;;;;;12.10;100.00;100607.84;5999159;28;20285;-66
2022/10/16 03:38:08;;;;;;;5.07;1.80;;;;;;;12.03;100.00;100604.16;5999579;28;20054;-67
2022/10/16 03:41:04;;;;;;;2.93;1.50;;;;;;;12.07;100.00;100616.13;5997495;28;20085;-67
2022/10/16 03:43:59;;;;;;;4.75;1.80;;;;;;;12.00;100.00;100593.84;5996438;28;20034;-67
2022/10/16 03:46:55;;;;;;;7.50;1.50;;;;;;;12.06;100.00;100603.84;5999725;28;20046;-67
2022/10/16 03:49:50;;;;;;;5.90;1.67;;;;;;;11.99;100.00;100600.16;5999201;28;20062;-67
2022/10/16 03:52:45;;;;;;;2.23;1.10;;;;;;;12.03;100.00;100606.81;5998923;28;20105;-67
2022/10/16 03:55:42;;;;;;;3.37;1.20;;;;;;;11.90;100.00;100612.59;5998257;28;20027;-67
2022/10/16 03:58:37;;;;;;;4.13;1.60;;;;;;;11.93;100.00;100609.59;5999103;28;20042;-67
2022/10/16 04:01:32;;;;;;;4.03;1.80;;;;;;;11.90;100.00;100599.28;5996196;28;20059;-66
2022/10/16 04:04:28;;;;;;;6.60;1.67;;;;;;;11.99;100.00;100608.97;5992012;28;20111;-66
2022/10/16 04:07:23;;;;;;;2.70;1.47;;;;;;;11.93;100.00;100591.81;5999515;28;20044;-67
2022/10/16 04:10:19;;;;;;;5.10;1.80;;;;;;;11.97;100.00;100605.63;5999113;28;20085;-67
2022/10/16 04:13:14;;;;;;;3.85;1.55;;;;;;;11.97;100.00;100613.59;5992628;28;20188;-67
2022/10/16 04:16:09;;;;;;;3.60;1.75;;;;;;;11.89;100.00;100614.41;5999065;28;20077;-67
2022/10/16 04:19:05;;;;;;;9.60;2.28;;;;;;;11.89;100.00;100609.09;5998979;28;20042;-67
2022/10/16 04:22:00;;;;;;;5.07;1.90;;;;;;;11.86;100.00;100589.97;5998208;28;20125;-67
2022/10/16 04:24:55;;;;;;;6.15;2.15;;;;;;;11.90;100.00;100602.75;5998009;28;20328;-67
2022/10/16 04:27:53;;;;;;;4.27;2.07;;;;;;;12.00;100.00;100617.78;5998976;28;20031;-67
2022/10/16 04:30:48;;;;;;;6.50;1.70;;;;;;;11.96;100.00;100611.94;5996142;28;20416;-66
2022/10/16 04:33:44;;;;;;;3.47;1.73;;;;;;;11.98;100.00;100599.34;5999057;28;20054;-66
2022/10/16 04:36:39;;;;;;;3.33;1.92;;;;;;;12.13;100.00;100636.78;6002801;28;20397;-66
2022/10/16 04:39:34;;;;;;;4.07;2.00;;;;;;;12.06;100.00;100623.31;6003386;28;20074;-66
2022/10/16 04:42:30;;;;;;;4.82;2.10;;;;;;;12.13;100.00;100620.81;6002366;28;20038;-67
2022/10/16 04:45:25;;;;;;;5.53;2.10;;;;;;;12.12;100.00;100612.00;6002352;28;20066;-67
2022/10/16 04:48:20;;;;;;;6.17;2.00;;;;;;;12.17;100.00;100630.16;6003625;28;20062;-66
2022/10/16 04:51:16;;;;;;;5.87;2.03;;;;;;;12.08;100.00;100628.44;6002701;28;20066;-66
2022/10/16 04:54:11;;;;;;;4.53;2.00;;;;;;;12.05;100.00;100623.44;6002751;28;20126;-66
2022/10/16 04:57:06;;;;;;;4.30;2.20;;;;;;;12.17;100.00;100624.84;6003497;28;20534;-66
2022/10/16 05:00:03;;;;;;;5.37;2.50;;;;;;;12.14;100.00;100609.22;6002608;28;20053;-67
2022/10/16 05:03:00;;;;;;;7.13;2.00;;;;;;;12.24;100.00;100634.69;5999802;28;20293;-66
2022/10/16 05:05:56;;;;;;;3.97;2.20;;;;;;;12.18;100.00;100629.16;6002970;28;20050;-66
2022/10/16 05:08:51;;;;;;;4.57;2.30;;;;;;;12.28;100.00;100641.38;6002655;28;20031;-66
2022/10/16 05:11:47;;;;;;;4.47;2.22;;;;;;;12.21;100.00;100644.78;6001565;28;20062;-67
2022/10/16 05:14:42;;;;;;;4.90;2.22;;;;;;;12.26;100.00;100655.78;6002181;28;20027;-67
2022/10/16 05:17:38;;;;;;;6.67;2.40;;;;;;;12.17;100.00;100644.31;6001895;28;20118;-67
2022/10/16 05:20:33;;;;;;;5.03;2.40;;;;;;;12.32;100.00;100663.13;6001991;28;20081;-67
2022/10/16 05:23:28;;;;;;;5.03;2.57;;;;;;;12.33;100.00;100660.34;6002696;28;20023;-67
2022/10/16 05:26:24;;;;;;;6.47;2.47;;;;;;;12.36;100.00;100657.38;6001738;28;20278;-66
2022/10/16 05:29:19;;;;;;;5.57;2.50;;;;;;;12.42;100.00;100669.16;6001221;28;20159;-67
2022/10/16 05:32:15;;;;;;;4.40;2.55;;;;;;;12.40;100.00;100661.34;6001535;28;20422;-66
2022/10/16 05:35:11;;;;;;;6.90;2.30;;;;;;;12.39;100.00;100675.63;5999710;28;20027;-66
2022/10/16 05:38:06;;;;;;;4.80;2.20;;;;;;;12.31;100.00;100658.84;5999379;28;20136;-67
2022/10/16 05:41:02;;;;;;;6.47;3.03;;;;;;;12.40;100.00;100672.00;6001639;28;20661;-67
2022/10/16 05:43:58;;;;;;;7.63;2.60;;;;;;;12.44;100.00;100675.19;6002142;28;20127;-67
2022/10/16 05:46:53;;;;;;;5.23;2.57;;;;;;;12.39;100.00;100674.81;6002505;28;20446;-67
2022/10/16 05:49:48;;;;;;;6.33;2.50;;;;;;;12.35;100.00;100686.75;5997662;28;20663;-67
2022/10/16 05:52:44;;;;;;;8.07;2.17;;;;;;;12.27;100.00;100686.72;6001143;28;20058;-66
2022/10/16 05:55:39;;;;;;;4.93;2.73;;;;;;;12.13;100.00;100674.00;6001849;28;20619;-66
2022/10/16 05:58:36;;;;;;;5.67;2.03;;;;;;;12.08;100.00;100678.94;6001527;28;20719;-67
2022/10/16 06:01:32;;;;;;;5.50;2.47;;;;;;;12.07;100.00;100685.25;6001249;28;20357;-67
2022/10/16 06:04:27;;;;;;;7.22;2.42;;;;;;;12.14;100.00;100699.59;6001738;28;20051;-66
2022/10/16 06:07:23;;;;;;;4.77;2.47;;;;;;;12.13;100.00;100696.09;5999727;28;20027;-65
2022/10/16 06:10:18;;;;;;;5.75;3.00;;;;;;;12.12;100.00;100682.97;5998814;28;20353;-68
2022/10/16 06:13:14;;;;;;;5.13;2.83;;;;;;;12.12;100.00;100702.41;6001209;28;20481;-65
2022/10/16 06:16:10;;;;;;;7.57;3.28;;;;;;;12.21;100.00;100704.13;6001569;28;20058;-65
2022/10/16 06:19:07;;;;;;;5.75;2.90;;;;;;;12.19;100.00;100689.31;6001275;28;20385;-67
2022/10/16 06:22:04;;;;;;;4.90;2.70;;;;;;;12.32;100.00;100705.69;6000977;28;20093;-68
2022/10/16 06:24:59;;;;;;;4.78;2.67;;;;;;;12.36;100.00;100699.06;5991550;28;20030;-68
2022/10/16 06:27:54;;;;;;;4.87;2.70;;;;;;;12.50;100.00;100698.50;6000823;28;20097;-68
2022/10/16 06:30:58;;;;;;;5.00;2.67;;;;;;;12.54;100.00;100699.81;6000353;28;20065;-68
2022/10/16 06:33:54;;;;;;;4.03;1.95;;;;;;;12.59;100.00;100718.81;6000025;28;20058;-66
2022/10/16 06:36:50;;;;;;;3.95;2.13;;;;;;;12.54;100.00;100726.41;6000251;28;20038;-67
2022/10/16 06:39:45;;;;;;;6.90;2.50;;;;;;;12.70;100.00;100741.63;5999249;28;20030;-67
2022/10/16 06:42:41;;;;;;;4.43;2.60;;;;;;;12.65;100.00;100728.81;5999479;28;20070;-68
2022/10/16 06:45:36;;;;;;;4.00;2.30;;;;;;;12.83;100.00;100750.84;5991936;28;20755;-67
2022/10/16 06:48:32;;;;;;;5.17;2.53;;;;;;;12.85;100.00;100750.69;6000468;28;20632;-68
2022/10/16 06:51:27;;;;;;;4.03;2.20;;;;;;;12.78;100.00;100744.31;6000096;28;20062;-68
2022/10/16 06:54:22;;;;;;;5.25;2.17;;;;;;;12.83;100.00;100756.16;6000633;28;20031;-68
2022/10/16 06:57:18;;;;;;;4.00;2.20;;;;;;;12.88;100.00;100755.72;5998925;28;20038;-68
2022/10/16 07:00:13;;;;;;;3.50;2.00;;;;;;;12.86;100.00;100747.88;5999447;28;20023;-67
2022/10/16 07:03:08;;;;;;;3.97;2.20;;;;;;;13.02;100.00;100747.09;6000339;28;20054;-68
2022/10/16 07:06:05;;;;;;;4.33;2.43;;;;;;;13.22;100.00;100743.19;6000459;28;20035;-67
2022/10/16 07:09:04;;;;;;;4.15;2.30;;;;;;;13.42;100.00;100765.91;5999839;28;20312;-65
2022/10/16 07:11:59;;;;;;;4.50;2.30;;;;;;;13.56;100.00;100751.13;5996173;28;20041;-66
2022/10/16 07:14:56;;;;;;;4.10;2.10;;;;;;;13.92;100.00;100757.78;5998099;28;20036;-68
2022/10/16 07:17:52;;;;;;;4.95;1.80;;;;;;;14.28;98.72;100774.28;5999779;28;20065;-66
2022/10/16 07:20:47;;;;;;;5.53;1.70;;;;;;;14.58;96.38;100764.75;5999442;28;20027;-66
2022/10/16 07:23:43;;;;;;;3.23;1.70;;;;;;;14.82;94.60;100773.53;5999879;28;20039;-66
2022/10/16 07:26:39;;;;;;;3.70;1.52;;;;;;;15.02;93.25;100779.31;5999563;28;20161;-68
2022/10/16 07:29:35;;;;;;;3.17;1.70;;;;;;;15.32;91.70;100788.34;5995944;28;20031;-65
2022/10/16 07:32:31;;;;;;;2.90;1.73;;;;;;;15.49;90.39;100777.41;5996380;28;20070;-66
2022/10/16 07:35:26;;;;;;;2.40;1.40;;;;;;;15.72;89.17;100787.31;5999714;28;20114;-66
2022/10/16 07:38:22;;;;;;;5.90;1.50;;;;;;;15.72;88.61;100773.94;5999288;28;20031;-66
2022/10/16 07:41:19;;;;;;;1.90;1.05;;;;;;;16.03;87.17;100788.09;5999049;28;20374;-66
2022/10/16 07:44:15;;;;;;;1.70;1.42;;;;;;;15.96;86.17;100784.47;5998823;28;20422;-66
2022/10/16 07:47:12;;;;;;;2.03;1.00;;;;;;;15.90;86.21;100795.88;5997398;28;20038;-66
2022/10/16 07:50:08;;;;;;;2.05;0.90;;;;;;;15.92;86.46;100794.69;5998975;28;20038;-67
2022/10/16 07:53:03;;;;;;;2.67;1.40;;;;;;;15.96;86.17;100811.22;5998891;28;20045;-66
2022/10/16 07:56:00;;;;;;;1.90;1.10;;;;;;;15.99;85.94;100808.19;5999443;28;20050;-66
2022/10/16 07:58:56;;;;;;;1.48;0.90;;;;;;;16.20;84.97;100791.47;5996808;28;20031;-66
2022/10/16 08:01:51;;;;;;;1.83;1.05;;;;;;;16.39;83.69;100815.88;5991567;28;20058;-66
2022/10/16 08:04:47;;;;;;;4.53;1.30;;;;;;;16.63;82.67;100804.16;5998101;28;20366;-66
2022/10/16 08:07:42;;;;;;;2.42;1.17;;;;;;;16.66;81.57;100809.94;5998407;28;20466;-66
2022/10/16 08:10:37;;;;;;;1.23;0.90;;;;;;;16.61;81.48;100820.38;5997624;28;20038;-66
2022/10/16 08:13:33;;;;;;;2.60;1.10;;;;;;;16.28;83.55;100832.34;5997161;28;20371;-66
2022/10/16 08:16:28;;;;;;;1.85;0.88;;;;;;;15.96;84.87;100833.44;5997515;28;20082;-66
2022/10/16 08:19:24;;;;;;;1.63;0.70;;;;;;;16.18;84.19;100823.75;5998702;28;20039;-66
2022/10/16 08:22:19;;;;;;;5.67;1.00;;;;;;;16.57;82.64;100843.19;5993177;28;20113;-66
2022/10/16 08:25:14;;;;;;;1.33;0.93;;;;;;;16.69;81.77;100842.75;5998591;28;20097;-67
2022/10/16 08:28:11;;;;;;;0.93;0.70;;;;;;;17.00;80.17;100844.25;5998732;28;20035;-66
2022/10/16 08:31:11;;;;;;;1.27;0.80;;;;;;;17.15;78.61;100841.56;5988629;28;20029;-66
2022/10/16 08:34:07;;;;;;;1.77;0.80;;;;;;;17.16;78.50;100848.59;5998957;28;20090;-67
2022/10/16 08:37:02;;;;;;;2.13;0.87;;;;;;;17.21;77.07;100846.19;5998919;28;20035;-67
2022/10/16 08:39:57;;;;;;;2.65;0.85;;;;;;;17.09;77.07;100853.03;5998400;28;20109;-67
2022/10/16 08:43:30;;;;;;;1.63;0.67;;;;;;;17.21;76.77;100854.22;5997586;28;20076;-67
2022/10/16 08:46:53;;;;;;;1.05;0.60;;;;;;;17.48;76.47;100860.75;5995833;28;20510;-66
2022/10/16 08:49:58;;;;;;;1.23;0.68;;;;;;;17.46;76.56;100828.78;6013022;28;20069;-66
2022/10/16 08:52:54;;;;;;;2.97;0.70;;;;;;;17.60;75.25;100857.47;5996889;28;20043;-66
2022/10/16 08:55:51;;;;;;;1.83;0.60;;;;;;;17.76;75.54;100862.59;5997437;28;20447;-66
2022/10/16 08:58:47;;;;;;;0.93;0.80;;;;;;;17.75;75.61;100855.56;5997361;28;20106;-67
2022/10/16 09:01:45;;;;;;;1.27;0.65;;;;;;;17.70;74.82;100860.66;5996386;28;20027;-66
2022/10/16 09:05:03;;;;;;;1.17;0.75;;;;;;;17.45;76.50;100870.00;5996657;28;20043;-66
2022/10/16 09:08:16;;;;;;;1.23;0.60;;;;;;;17.24;75.69;100876.13;6012878;28;20022;-67
2022/10/16 09:11:39;;;;;;;2.60;0.77;;;;;;;17.13;76.58;100873.06;5997703;28;20497;-66
2022/10/16 09:14:58;;;;;;;3.75;1.00;;;;;;;17.04;77.40;100866.16;5997263;28;20047;-66
2022/10/16 09:18:12;;;;;;;2.67;0.80;;;;;;;16.80;76.92;100869.91;5998480;28;20109;-66
2022/10/16 09:21:17;;;;;;;4.03;0.98;;;;;;;16.93;76.43;100880.81;6000802;28;20073;-66
2022/10/16 09:24:21;;;;;;;1.10;0.77;;;;;;;17.06;76.21;100890.91;5997028;28;20050;-66
2022/10/16 09:27:16;;;;;;;1.85;0.73;;;;;;;17.25;74.70;100879.66;6000966;28;20031;-66
2022/10/16 09:30:13;;;;;;;4.20;0.97;;;;;;;17.45;73.79;100882.63;6001639;28;20066;-66
2022/10/16 09:33:10;;;;;;;2.22;0.80;;;;;;;17.70;72.45;100870.56;6001619;28;20031;-67
2022/10/16 09:36:06;;;;;;;1.85;1.00;;;;;;;17.91;71.97;100894.75;5998721;28;20031;-66
2022/10/16 09:39:05;;;;;;;3.42;0.95;;;;;;;18.00;70.83;100880.19;6001159;28;20035;-67
2022/10/16 09:42:01;;;;;;;5.03;0.93;;;;;;;18.14;69.54;100905.31;6001523;28;20043;-66
2022/10/16 09:44:56;;;;;;;3.37;0.70;;;;;;;18.26;70.09;100914.56;6001882;28;20134;-67
2022/10/16 09:47:51;;;;;;;2.00;0.93;;;;;;;18.38;68.73;100915.69;6000934;28;20266;-67
2022/10/16 09:51:02;;;;;;;1.35;0.65;;;;;;;18.47;67.54;100919.09;6001446;28;20066;-66
2022/10/16 09:54:11;;;;;;;0.55;0.50;;;;;;;18.55;66.84;100924.38;5997509;28;20029;-67
2022/10/16 09:57:14;;;;;;;1.50;0.80;;;;;;;18.53;67.31;100927.25;6000575;28;20061;-67
2022/10/16 10:00:10;;;;;;;1.15;0.70;;;;;;;18.51;66.64;100926.59;5989627;28;20084;-67
2022/10/16 10:03:10;;;;;;;4.28;0.85;;;;;;;18.58;67.31;100940.09;6001387;28;20054;-66
2022/10/16 10:06:16;;;;;;;3.13;0.77;;;;;;;18.64;65.37;100925.91;6001221;28;20478;-67
2022/10/16 10:09:43;;;;;;;1.05;0.75;;;;;;;18.85;65.19;100944.69;6000305;28;20119;-67
2022/10/16 10:12:39;;;;;;;1.73;0.70;;;;;;;18.94;66.44;100936.28;5999810;28;20042;-67
2022/10/16 10:15:41;;;;;;;3.28;0.50;;;;;;;19.11;62.84;100944.03;5999055;28;20069;-67
2022/10/16 10:18:36;;;;;;;1.20;0.57;;;;;;;18.93;61.39;100948.06;6000623;28;20077;-67
2022/10/16 10:21:32;;;;;;;1.20;0.50;;;;;;;18.90;62.75;100956.53;5998884;28;20030;-67
2022/10/16 10:24:28;;;;;;;3.85;0.70;;;;;;;18.71;62.71;100959.03;5997837;28;20027;-67
2022/10/16 10:27:41;;;;;;;1.33;0.57;;;;;;;18.54;64.23;100952.25;5999675;28;20532;-67
2022/10/16 10:31:03;;;;;;;1.27;1.08;;;;;;;18.60;64.56;100968.44;5975296;28;20051;-67
2022/10/16 10:34:21;;;;;;;3.08;0.70;;;;;;;18.22;64.27;100957.06;5998280;28;20040;-67
2022/10/16 10:37:51;;;;;;;2.15;0.65;;;;;;;18.19;64.42;100970.84;6000441;28;20121;-67
2022/10/16 10:41:02;;;;;;;2.00;0.63;;;;;;;18.12;63.82;100948.47;6014105;28;20390;-67
2022/10/16 10:44:26;;;;;;;1.88;0.50;;;;;;;18.41;63.70;100966.34;5997883;28;20058;-67
2022/10/16 10:47:40;;;;;;;2.95;0.82;;;;;;;18.93;63.02;100974.94;5999490;28;20109;-67
2022/10/16 10:50:59;;;;;;;1.70;0.50;;;;;;;19.32;60.15;100973.59;5999582;28;20039;-67
2022/10/16 10:54:12;;;;;;;1.55;0.60;;;;;;;18.63;61.60;100968.06;5999727;28;20043;-67
2022/10/16 10:57:14;;;;;;;2.10;0.60;;;;;;;18.21;63.31;100984.06;5995706;28;20031;-67
2022/10/16 11:00:18;;;;;;;4.25;1.13;;;;;;;17.89;64.34;100985.34;5998909;28;20067;-67
2022/10/16 11:03:32;;;;;;;1.95;0.65;;;;;;;18.03;64.65;100989.88;6000141;28;20061;-67
2022/10/16 11:06:33;;;;;;;3.28;0.77;;;;;;;18.45;61.87;100981.06;5999468;28;20041;-67
2022/10/16 11:09:36;;;;;;;1.63;0.70;;;;;;;19.10;60.79;100975.50;5999959;28;20038;-67
2022/10/16 11:12:35;;;;;;;1.90;0.65;;;;;;;19.31;59.80;100974.63;5998909;28;20039;-67
2022/10/16 11:15:36;;;;;;;3.45;0.60;;;;;;;19.25;58.98;100967.31;5997801;28;20531;-67
2022/10/16 11:18:52;;;;;;;2.83;0.60;;;;;;;19.43;58.77;101008.88;5999890;28;20110;-68
2022/10/16 11:22:17;;;;;;;2.42;0.93;;;;;;;19.69;59.91;101000.16;5998555;28;20394;-67
2022/10/16 11:25:19;;;;;;;2.97;0.80;;;;;;;19.85;57.24;100986.34;5987661;28;20030;-67
2022/10/16 11:28:21;;;;;;;3.80;0.82;;;;;;;19.96;57.15;100987.66;5997886;28;20030;-67
2022/10/16 11:31:25;;;;;;;1.95;0.70;;;;;;;19.65;56.67;101012.31;5996617;28;20457;-67
2022/10/16 11:34:43;;;;;;;1.25;0.60;;;;;;;18.91;59.73;101009.25;5998316;28;20038;-67
2022/10/16 11:37:42;;;;;;;1.88;0.77;;;;;;;18.55;61.32;101013.84;6014231;28;20039;-67
2022/10/16 11:40:40;;;;;;;2.03;0.77;;;;;;;18.47;62.00;101003.19;5996916;28;20022;-67
2022/10/16 11:43:41;;;;;;;2.38;0.60;;;;;;;18.43;62.57;100992.00;6013106;28;20033;-67
2022/10/16 11:46:38;;;;;;;1.15;0.60;;;;;;;18.31;63.13;101003.44;5997642;28;20367;-67
2022/10/16 11:49:34;;;;;;;2.70;0.65;;;;;;;18.27;62.67;101005.66;5997314;28;20632;-67
2022/10/16 11:52:40;;;;;;;0.52;0.50;;;;;;;18.35;62.76;101004.69;5996909;28;20041;-67
2022/10/16 11:55:40;;;;;;;3.25;0.60;;;;;;;18.23;62.95;101014.28;5996999;28;20053;-67
2022/10/16 11:58:47;;;;;;;0.50;0.40;;;;;;;18.05;63.53;101005.75;5998408;28;20042;-66
2022/10/16 12:01:47;;;;;;;3.47;0.60;;;;;;;18.12;60.74;100990.59;5996818;28;20027;-67
2022/10/16 12:04:48;;;;;;;2.83;1.00;;;;;;;18.17;59.97;101006.97;5993591;28;20073;-67
2022/10/16 12:07:53;;;;;;;1.80;0.77;;;;;;;18.08;61.17;101011.59;5983535;28;20047;-67
2022/10/16 12:10:51;;;;;;;0.88;0.50;;;;;;;18.12;61.65;101018.28;6004257;28;20086;-67
2022/10/16 12:13:48;;;;;;;3.88;0.60;;;;;;;18.25;60.25;101017.59;5988606;28;20052;-67
2022/10/16 12:16:55;;;;;;;2.88;0.50;;;;;;;18.46;59.37;101025.69;5986788;28;20030;-67
2022/10/16 12:20:13;;;;;;;2.75;0.50;;;;;;;18.56;59.02;101015.53;5995860;28;20070;-67
2022/10/16 12:23:25;;;;;;;2.22;0.80;;;;;;;18.73;59.84;101021.47;5997666;28;20034;-67
2022/10/16 12:26:28;;;;;;;3.38;0.77;;;;;;;18.94;57.10;101019.59;5997447;28;20097;-67
2022/10/16 12:29:38;;;;;;;3.60;0.63;;;;;;;19.23;57.22;101023.16;6005041;28;20042;-67
2022/10/16 12:32:36;;;;;;;2.60;0.60;;;;;;;19.29;57.08;101022.41;5995397;28;20039;-67
2022/10/16 12:35:34;;;;;;;2.22;0.70;;;;;;;19.34;57.02;101014.56;5996359;28;20122;-67
2022/10/16 12:38:38;;;;;;;2.90;0.57;;;;;;;19.25;55.78;101027.31;5994205;28;20035;-67
2022/10/16 12:41:37;;;;;;;2.08;0.60;;;;;;;19.46;56.32;101026.47;6011473;28;20595;-67
2022/10/16 12:44:34;;;;;;;0.68;0.40;;;;;;;19.55;55.44;101030.69;5993985;28;20039;-67
2022/10/16 12:47:30;;;;;;;2.40;0.60;;;;;;;19.51;54.95;101037.50;5997453;28;20066;-67
2022/10/16 12:50:30;;;;;;;2.13;0.47;;;;;;;19.38;54.84;101027.44;5995242;28;20047;-67
2022/10/16 12:53:27;;;;;;;1.50;0.45;;;;;;;19.26;55.21;101034.38;5997417;28;20868;-67
2022/10/16 12:56:31;;;;;;;1.38;0.50;;;;;;;19.18;55.80;101023.75;5999551;28;20073;-68
2022/10/16 12:59:35;;;;;;;2.78;0.50;;;;;;;19.15;55.88;101042.13;6001021;28;20126;-67
2022/10/16 13:02:57;;;;;;;0.65;0.40;;;;;;;19.05;56.29;101038.94;5993988;28;20138;-67
2022/10/16 13:06:04;;;;;;;1.60;0.50;;;;;;;18.84;56.91;101048.66;5987257;28;20106;-67
2022/10/16 13:09:19;;;;;;;9.05;3.90;;;;;;;18.63;59.11;101054.03;6002228;28;20434;-67
2022/10/16 13:12:27;;;;;;;2.92;0.70;;;;;;;18.46;60.24;101063.28;5992822;28;20039;-67
2022/10/16 13:15:35;;;;;;;2.38;0.50;;;;;;;18.28;60.59;101070.94;6000529;28;20158;-67
2022/10/16 13:18:46;;;;;;;2.85;0.63;;;;;;;18.22;59.80;101066.28;5993229;28;20031;-68
2022/10/16 13:22:11;;;;;;;1.65;0.47;;;;;;;18.21;59.62;101075.34;5994040;28;20031;-67
2022/10/16 13:25:22;;;;;;;0.75;0.50;;;;;;;18.15;60.55;101076.13;6013853;28;20082;-67
2022/10/16 13:28:21;;;;;;;0.82;0.50;;;;;;;17.97;60.95;101063.06;5996487;28;20130;-67
2022/10/16 13:31:20;;;;;;;2.33;0.32;;;;;;;17.86;61.58;101076.94;6000027;28;20771;-67
2022/10/16 13:34:21;;;;;;;0.98;0.40;;;;;;;17.72;62.37;101075.91;6016371;28;20038;-68
2022/10/16 13:37:21;;;;;;;1.00;0.43;;;;;;;17.68;62.46;101077.31;5997595;28;20498;-67
2022/10/16 13:40:23;;;;;;;0.77;0.50;;;;;;;17.76;61.89;101085.28;5996693;28;20070;-67
2022/10/16 13:43:24;;;;;;;1.77;0.45;;;;;;;17.79;61.28;101076.88;5997484;28;20034;-67
2022/10/16 13:46:21;;;;;;;1.20;0.65;;;;;;;18.12;60.75;101076.50;6001325;28;20446;-67
2022/10/16 13:49:17;;;;;;;2.25;0.38;;;;;;;18.24;59.51;101075.81;6000555;28;20507;-67
2022/10/16 13:52:20;;;;;;;0.50;0.35;;;;;;;18.24;59.80;101070.47;5989374;28;20049;-67